createdAt,value
2019-04-21T19:32:01.092Z,23.83
2019-04-21T19:34:22.290Z,17.67
2019-04-21T19:36:55.801Z,8.65
2019-04-21T19:39:36.202Z,13.58
2019-04-21T19:42:02.929Z,20.97
2019-04-21T19:44:47.056Z,9.18
2019-04-21T19:47:25.904Z,9.05
2019-04-21T19:49:57.866Z,7.33
2019-04-21T19:52:16.452Z,11.80
2019-04-21T19:54:42.655Z,13.28
2019-04-21T19:57:13.249Z,9.40
2019-04-21T20:02:16.570Z,9.13
2019-04-21T20:04:55.577Z,9.80
2019-04-21T20:07:34.207Z,11.60
2019-04-21T20:10:14.274Z,10.05
2019-04-21T20:13:02.895Z,11.80
2019-04-21T20:15:26.000Z,13.78
2019-04-21T20:17:47.811Z,10.90
2019-04-21T20:20:04.019Z,12.28
2019-04-21T20:22:40.427Z,9.33
2019-04-21T20:25:16.142Z,8.75
2019-04-21T20:27:55.341Z,8.68
2019-04-21T20:35:49.619Z,9.25
2019-04-21T20:38:06.449Z,8.73
2019-04-21T20:40:37.832Z,8.23
2019-04-21T20:43:16.431Z,7.53
2019-04-21T20:45:57.445Z,7.92
2019-04-21T20:48:13.992Z,6.97
2019-04-21T20:53:26.197Z,6.37
2019-04-21T20:55:57.941Z,7.25
2019-04-21T21:03:40.812Z,5.97
2019-04-21T21:06:08.193Z,7.70
2019-04-21T21:08:44.583Z,7.47
2019-04-21T21:11:22.000Z,6.62
2019-04-21T21:13:52.154Z,6.60
2019-04-21T21:16:36.898Z,7.85
2019-04-21T21:19:18.231Z,4.28
2019-04-21T21:21:32.447Z,6.08
2019-04-21T21:24:05.542Z,6.78
2019-04-21T21:26:38.140Z,10.48
2019-04-21T21:29:00.292Z,6.47
2019-04-21T21:31:44.954Z,4.25
2019-04-21T21:34:16.537Z,6.92
2019-04-21T21:36:51.115Z,4.95
2019-04-21T21:39:18.410Z,3.77
2019-04-21T21:41:44.145Z,4.28
2019-04-21T21:44:14.457Z,8.85
2019-04-21T21:49:29.318Z,5.12
2019-04-21T21:52:06.086Z,6.45
2019-04-21T21:54:27.634Z,5.10
2019-04-21T21:56:58.674Z,8.70
2019-04-21T21:59:31.800Z,5.78
2019-04-21T22:02:03.561Z,4.08
2019-04-21T22:04:44.475Z,4.50
2019-04-21T22:07:15.594Z,5.08
2019-04-21T22:09:44.367Z,5.37
2019-04-21T22:14:51.809Z,5.75
2019-04-21T22:17:34.690Z,7.03
2019-04-21T22:22:38.959Z,3.58
2019-04-21T22:25:06.935Z,6.33
2019-04-21T22:27:28.866Z,4.85
2019-04-21T22:30:03.396Z,6.65
2019-04-21T22:35:11.363Z,5.05
2019-04-21T22:37:51.130Z,6.60
2019-04-21T22:40:20.265Z,4.60
2019-04-21T22:42:54.993Z,5.67
2019-04-21T22:45:17.775Z,5.28
2019-04-21T22:47:49.497Z,6.62
2019-04-21T22:50:34.835Z,4.30
2019-04-21T22:53:08.479Z,5.17
2019-04-21T22:55:38.964Z,4.12
2019-04-21T22:58:11.457Z,4.78
2019-04-21T23:00:46.438Z,5.22
2019-04-21T23:03:21.342Z,7.33
2019-04-21T23:05:51.875Z,5.20
2019-04-21T23:08:27.960Z,5.67
2019-04-21T23:13:28.555Z,10.60
2019-04-21T23:16:00.906Z,6.50
2019-04-21T23:18:46.448Z,4.47
2019-04-21T23:21:16.319Z,4.53
2019-04-21T23:23:55.992Z,4.90
2019-04-21T23:28:56.849Z,4.15
2019-04-21T23:31:34.141Z,3.70
2019-04-21T23:33:46.404Z,4.33
2019-04-21T23:36:22.360Z,5.20
2019-04-21T23:38:52.001Z,4.95
2019-04-21T23:43:59.130Z,4.50
2019-04-21T23:46:31.957Z,4.80
2019-04-21T23:49:17.577Z,3.60
2019-04-21T23:56:39.472Z,5.00
2019-04-21T23:59:12.528Z,4.40
